KSNK/SNK METAR and TAF weather

Enter ICAO airport designator
Station Type Date Time Source
KSNK METAR 2022/09/26 10:15 UTC NOAA

KSNK 261015Z AUTO 06013G18KT 10SM CLR 20/04 A3019 RMK AO2 T02000041


Station Type Date Time Source
KSNK Decoded METAR 2022/09/26 10:15 UTC NOAA

Snyder, Winston Field Airport, TX, United States (KSNK) 32-41-36N 100-57-01W
Sep 26, 2022 - 06:15 AM EDT / 2022.09.26 1015 UTC
Wind: from the ENE (060 degrees) at 15 MPH (13 KT) gusting to 21 MPH (18 KT):0
Visibility: 10 mile(s):0
Sky conditions: clear
Temperature: 68.0 F (20.0 C)
Dew Point: 39.4 F (4.1 C)
Relative Humidity: 35%
Pressure (altimeter): 30.19 in. Hg (1022 hPa)
ob: KSNK 261015Z AUTO 06013G18KT 10SM CLR 20/04 A3019 RMK AO2 T02000041
cycle: 10

Station Type Date Time Source
KSNK TAF UTC NOAA

Error!

Example: see airport list